KALO/ALO METAR and TAF weather

Enter ICAO airport designator
Station Type Date Time Source
KALO METAR 2019/08/22 08:54 UTC NOAA

KALO 220854Z AUTO 00000KT 10SM CLR 14/13 A3003 RMK AO2 SLP165 T01390128 56013


Station Type Date Time Source
KALO Decoded METAR 2019/08/22 08:54 UTC NOAA

Station name not available
Aug 22, 2019 - 04:54 AM EDT / 2019.08.22 0854 UTC
Wind: Calm:0
Visibility: 10 mile(s):0
Sky conditions: clear
Temperature: 57.0 F (13.9 C)
Dew Point: 55.0 F (12.8 C)
Relative Humidity: 93%
Pressure (altimeter): 30.03 in. Hg (1016 hPa)
Pressure tendency: 0.04 inches (1.3 hPa) lower than three hours ago
ob: KALO 220854Z AUTO 00000KT 10SM CLR 14/13 A3003 RMK AO2 SLP165 T01390128 56013
cycle: 9

Station Type Date Time Source
KALO TAF 2019/08/22 06:22 UTC NOAA

TAF KALO 220520Z 2206/2306 32003KT P6SM SCT250
FM221700 36005KT P6SM SCT050
FM222300 03005KT P6SM SCT250

Example: see airport list